Maersk Barry — OYJE2 — position and weather

sailwx.info

Track history (hours):
 
Tides and Currents Weather Stations Pressure Air Temp Water Temp Dewpoint Dewpoint Depression Visibility Wind Speed Wind Dir Waves Ship Positions

Maersk Barry

Last reported at 2017-Dec-03 22:39 UTC. Time now 2017-Dec-11 19:18 UTC.
Position N 49°48' W 005°13'.

Length 175 m; draft 9.2 m.

Type: Ship (hazmat cat D). MMSI: 219127000.

Date/timePositionNaut miles runAvg speedWind from/ knotsBaromVisibWave heightAir tempDewpointWater temp
2017-Dec-03 22:39N 49°48' W 005°13'214.3
2017-Dec-03 22:30N 49°48' W 005°10'714.2
2017-Dec-03 22:00N 49°50' W 004°58'713.9
2017-Dec-03 21:30N 49°51' W 004°48'713.4
2017-Dec-03 21:00N 49°52' W 004°38'713.2
2017-Dec-03 20:30N 49°54' W 004°28'612.7
2017-Dec-03 20:00N 49°56' W 004°19'612.2
2017-Dec-03 19:30N 49°57' W 004°09'611.8
2017-Dec-03 19:00N 49°59' W 004°01'711.2
2017-Dec-03 18:25N 50°01' W 003°51'410.8
2017-Dec-03 18:00N 50°02' W 003°44'510.5
2017-Dec-03 17:30N 50°04' W 003°37'510.9
2017-Dec-03 17:00N 50°06' W 003°29'611.3
2017-Dec-03 16:30N 50°09' W 003°21'611.8
2017-Dec-03 16:00N 50°12' W 003°13'612.3
2017-Dec-03 15:30N 50°14' W 003°04'612.8
2017-Dec-03 15:00N 50°17' W 002°55'713.5
2017-Dec-03 14:30N 50°20' W 002°46'714.3
2017-Dec-03 14:00N 50°24' W 002°36'815.4
2017-Dec-03 13:30N 50°27' W 002°25'611.0
2017-Dec-03 12:57N 50°32' W 002°20'510.5
2017-Dec-03 12:28N 50°36' W 002°24'0 0.5
2017-Dec-03 11:56N 50°36' W 002°25'0 0.0
2017-Dec-03 11:29N 50°36' W 002°25'0 0.0
2017-Dec-03 10:59N 50°36' W 002°25'0 0.0
2017-Dec-03 10:29N 50°36' W 002°25'0 0.0
2017-Dec-03 09:02N 50°36' W 002°25'0 0.1
2017-Dec-03 08:53N 50°36' W 002°25'0 0.2
2017-Dec-03 08:29N 50°36' W 002°25'2 3.3
2017-Dec-03 07:58N 50°35' W 002°23'2 4.6
2017-Dec-03 07:29N 50°33' W 002°21'8 7.2
2017-Dec-03 06:19N 50°29' W 002°09'2 4.7
2017-Dec-03 06:00N 50°29' W 002°07'2 4.8
2017-Dec-03 05:30N 50°28' W 002°04'4 6.5
2017-Dec-03 04:56N 50°26' W 001°58'410.4
2017-Dec-03 04:30N 50°25' W 001°51'1712.2
2017-Dec-03 03:05N 50°24' W 001°24'113.7
2017-Dec-03 03:01N 50°24' W 001°23'713.9
2017-Dec-03 02:31N 50°24' W 001°12'714.7
2017-Dec-03 02:00N 50°25' W 001°00'715.0
2017-Dec-03 01:31N 50°26' W 000°49'1314.6
2017-Dec-03 00:38N 50°28' W 000°29'314.1
2017-Dec-03 00:25N 50°29' W 000°25'513.7
2017-Dec-03 00:00N 50°30' W 000°16'713.3
2017-Dec-02 23:30N 50°31' W 000°06'612.8
2017-Dec-02 23:00N 50°33' E 000°04'612.3
2017-Dec-02 22:30N 50°34' E 000°13'611.8
2017-Dec-02 22:00N 50°36' E 000°22'611.2
2017-Dec-02 21:30N 50°37' E 000°31'510.7
2017-Dec-02 21:00N 50°40' E 000°38'510.6
2017-Dec-02 20:30N 50°43' E 000°45'510.9
2017-Dec-02 20:00N 50°46' E 000°52'611.4
2017-Dec-02 19:30N 50°49' E 000°59'712.4
2017-Dec-02 18:57N 50°54' E 001°08'613.5
2017-Dec-02 18:30N 50°58' E 001°15'714.4
2017-Dec-02 18:00N 51°02' E 001°24'815.0
2017-Dec-02 17:30N 51°07' E 001°33'714.6
2017-Dec-02 17:00N 51°12' E 001°42'713.7
2017-Dec-02 16:31N 51°17' E 001°48'612.7
2017-Dec-02 16:00N 51°23' E 001°53'612.0
2017-Dec-02 15:31N 51°28' E 001°57'611.5
2017-Dec-02 15:01N 51°33' E 002°03'611.2
2017-Dec-02 14:30N 51°37' E 002°10'610.9
2017-Dec-02 14:00N 51°41' E 002°16'510.7
2017-Dec-02 13:30N 51°45' E 002°21'910.6
2017-Dec-02 12:39N 51°52' E 002°31'210.3
2017-Dec-02 12:29N 51°53' E 002°33'610.1
2017-Dec-02 11:56N 51°58' E 002°38'44011.9
2017-Nov-30 22:55N 57°49' E 010°18'613.7
2017-Nov-30 22:30N 57°49' E 010°29'713.6
2017-Nov-30 22:00N 57°48' E 010°41'510.1
2017-Nov-30 21:30N 57°43' E 010°46'4 7.5
2017-Nov-30 21:00N 57°40' E 010°44'1 1.0
2017-Nov-30 20:29N 57°40' E 010°43'0 0.0
2017-Nov-30 19:59N 57°40' E 010°43'0 0.0
2017-Nov-30 19:29N 57°40' E 010°43'0 0.0
2017-Nov-30 18:59N 57°40' E 010°43'0 0.0
2017-Nov-30 18:26N 57°40' E 010°43'0 0.0
2017-Nov-30 17:59N 57°40' E 010°43'0 0.1
2017-Nov-30 17:29N 57°40' E 010°43'0 0.1
2017-Nov-30 16:56N 57°40' E 010°43'0 0.1
2017-Nov-30 16:26N 57°40' E 010°43'0 0.1
2017-Nov-30 15:59N 57°40' E 010°43'0 0.0
2017-Nov-30 15:29N 57°40' E 010°43'0 0.1
2017-Nov-30 14:56N 57°40' E 010°43'0 0.1
2017-Nov-30 14:26N 57°40' E 010°43'0 0.1
2017-Nov-30 14:00N 57°40' E 010°43'1 1.4
2017-Nov-30 13:30N 57°41' E 010°44'3 6.3
2017-Nov-30 13:00N 57°43' E 010°47'4 8.6
2017-Nov-30 12:30N 57°43' E 010°55'612.3
2017-Nov-30 12:00N 57°39' E 011°04'612.9
2017-Nov-30 11:30N 57°35' E 011°13'713.0
2017-Nov-30 11:00N 57°31' E 011°22'612.6
2017-Nov-30 10:30N 57°25' E 011°28'612.8
2017-Nov-30 10:00N 57°19' E 011°32'713.1
2017-Nov-30 09:29N 57°13' E 011°36'613.4
2017-Nov-30 09:00N 57°07' E 011°40'713.3
2017-Nov-30 08:30N 57°01' E 011°45'10711.6
2017-Nov-29 23:13N 55°16' E 011°05'313.0
2017-Nov-29 23:00N 55°13' E 011°06'612.4
2017-Nov-29 22:30N 55°07' E 011°03'612.7
2017-Nov-29 22:00N 55°01' E 011°02'612.9
2017-Nov-29 21:30N 54°55' E 010°55'612.7
2017-Nov-29 21:00N 54°49' E 010°52'612.2
2017-Nov-29 20:30N 54°43' E 010°51'4 8.4
2017-Nov-29 20:00N 54°40' E 010°54'5 9.9
2017-Nov-29 19:30N 54°38' E 011°02'611.3
2017-Nov-29 19:00N 54°36' E 011°11'713.3
2017-Nov-29 18:30N 54°33' E 011°22'713.3
2017-Nov-29 18:00N 54°30' E 011°32'713.4
2017-Nov-29 17:30N 54°28' E 011°43'713.1
2017-Nov-29 16:57N 54°27' E 011°55'612.6
2017-Nov-29 16:30N 54°26' E 012°05'611.4
2017-Nov-29 16:00N 54°30' E 012°11'8311.6
2017-Nov-29 08:50N 54°39' E 014°34'412.4
2017-Nov-29 08:29N 54°39' E 014°41'812.2
2017-Nov-29 07:50N 54°40' E 014°54'11112.1
2017-Nov-28 22:42N 54°57' E 018°04'212.6
2017-Nov-28 22:30N 54°57' E 018°08'712.7
2017-Nov-28 21:57N 54°57' E 018°21'612.7
2017-Nov-28 21:30N 54°57' E 018°31'612.4
2017-Nov-28 21:00N 54°56' E 018°41'613.0
2017-Nov-28 20:30N 54°51' E 018°49'713.1
2017-Nov-28 20:00N 54°47' E 018°58'611.3
2017-Nov-28 19:31N 54°41' E 018°59'714.0
2017-Nov-28 19:01N 54°35' E 018°53'713.8
2017-Nov-28 18:30N 54°30' E 018°45'5 9.6
2017-Nov-28 18:00N 54°26' E 018°40'2 4.8
2017-Nov-28 17:30N 54°24' E 018°41'2 2.9
2017-Nov-28 16:58N 54°23' E 018°40'0 0.0
2017-Nov-28 16:28N 54°23' E 018°40'0 0.0
2017-Nov-28 15:58N 54°23' E 018°40'0 0.0
2017-Nov-28 14:58N 54°23' E 018°40'0 0.0
2017-Nov-28 14:28N 54°23' E 018°40'0 0.0
2017-Nov-28 13:58N 54°23' E 018°40'0 0.0
2017-Nov-28 13:28N 54°23' E 018°40'0 0.0
2017-Nov-28 12:58N 54°23' E 018°40'0 0.0
2017-Nov-28 12:28N 54°23' E 018°40'0 0.0
2017-Nov-28 11:58N 54°23' E 018°40'0 0.0
2017-Nov-28 11:25N 54°23' E 018°40'0 0.0
2017-Nov-28 10:58N 54°23' E 018°40'0 0.0
2017-Nov-28 10:28N 54°23' E 018°40'0 0.0
2017-Nov-28 09:58N 54°23' E 018°40'0 0.0
2017-Nov-28 09:28N 54°23' E 018°40'0 0.0
2017-Nov-28 08:58N 54°23' E 018°40'0 0.0
2017-Nov-28 08:25N 54°23' E 018°40'0 0.0
2017-Nov-28 07:58N 54°23' E 018°40'0 0.0
2017-Nov-28 07:28N 54°23' E 018°40'0 0.0
2017-Nov-28 06:58N 54°23' E 018°40'0 0.0
2017-Nov-28 06:28N 54°23' E 018°40'0 0.0
2017-Nov-28 05:58N 54°23' E 018°40'0 0.0
2017-Nov-28 05:28N 54°23' E 018°40'0 0.0
2017-Nov-28 04:28N 54°23' E 018°40'0 0.0
2017-Nov-28 03:58N 54°23' E 018°40'0 0.0
2017-Nov-28 03:28N 54°23' E 018°40'0 0.0
2017-Nov-28 02:58N 54°23' E 018°40'0 0.0
2017-Nov-28 02:28N 54°23' E 018°40'0 0.0
2017-Nov-28 01:58N 54°23' E 018°40'0 0.0
2017-Nov-28 01:25N 54°23' E 018°40'0 0.0
2017-Nov-28 00:58N 54°23' E 018°40'0 0.0
2017-Nov-28 00:28N 54°23' E 018°40'0 0.0
2017-Nov-27 23:58N 54°23' E 018°40'0 0.0
2017-Nov-27 23:28N 54°23' E 018°40'0 0.0
2017-Nov-27 22:58N 54°23' E 018°40'0 0.0
2017-Nov-27 22:28N 54°23' E 018°40'0 0.0
2017-Nov-27 21:58N 54°23' E 018°40'0 0.0
2017-Nov-27 21:28N 54°23' E 018°40'0 0.0
2017-Nov-27 20:58N 54°23' E 018°40'0 0.0
2017-Nov-27 20:25N 54°23' E 018°40'0 0.0
2017-Nov-27 19:58N 54°23' E 018°40'0 0.0
2017-Nov-27 19:28N 54°23' E 018°40'0 0.0
2017-Nov-27 18:55N 54°23' E 018°40'0 0.0
2017-Nov-27 18:28N 54°23' E 018°40'0 0.0
2017-Nov-27 17:58N 54°23' E 018°40'0 0.0
2017-Nov-27 17:28N 54°23' E 018°40'0 0.0
2017-Nov-27 16:58N 54°23' E 018°40'0 0.0
2017-Nov-27 16:28N 54°23' E 018°40'0 0.0
2017-Nov-27 15:55N 54°23' E 018°40'0 0.0
2017-Nov-27 15:28N 54°23' E 018°40'0 0.0
2017-Nov-27 14:58N 54°23' E 018°40'0 0.0
2017-Nov-27 14:28N 54°23' E 018°40'0 0.0
2017-Nov-27 13:58N 54°23' E 018°40'0 0.0
2017-Nov-27 13:25N 54°23' E 018°40'0 0.0
2017-Nov-27 12:58N 54°23' E 018°40'0 0.0
2017-Nov-27 12:29N 54°23' E 018°40'0 0.0
2017-Nov-27 11:59N 54°23' E 018°40'0 0.0
2017-Nov-27 11:29N 54°23' E 018°40'0 0.0
2017-Nov-27 10:59N 54°23' E 018°40'0 0.0
2017-Nov-27 10:29N 54°23' E 018°40'0 0.0
2017-Nov-27 09:53N 54°23' E 018°40'0 0.0
2017-Nov-27 09:29N 54°23' E 018°40'0 0.0
2017-Nov-27 08:56N 54°23' E 018°40'0 0.0
2017-Nov-27 08:29N 54°23' E 018°40'0 0.0
2017-Nov-27 07:53N 54°23' E 018°40'0 0.0
2017-Nov-27 07:26N 54°23' E 018°40'0 0.0
2017-Nov-27 06:59N 54°23' E 018°40'0 0.0
2017-Nov-27 06:29N 54°23' E 018°40'0 0.0
2017-Nov-27 05:56N 54°23' E 018°40'0 0.0
2017-Nov-27 05:29N 54°23' E 018°40'0 0.0
2017-Nov-27 04:59N 54°23' E 018°40'0 0.0
2017-Nov-27 04:29N 54°23' E 018°40'0 0.0
2017-Nov-27 03:59N 54°23' E 018°40'0 0.0
2017-Nov-27 03:29N 54°23' E 018°40'0 0.0
2017-Nov-27 02:59N 54°23' E 018°40'0 0.0
2017-Nov-27 02:26N 54°23' E 018°40'0 0.0
2017-Nov-27 01:59N 54°23' E 018°40'0 0.0
2017-Nov-27 01:26N 54°23' E 018°40'0 0.0
2017-Nov-27 00:59N 54°23' E 018°40'0 0.0
2017-Nov-27 00:29N 54°23' E 018°40'0 0.0
2017-Nov-26 23:59N 54°23' E 018°40'0 0.0
2017-Nov-26 23:29N 54°23' E 018°40'0 0.0
2017-Nov-26 22:59N 54°23' E 018°40'0 0.0
2017-Nov-26 22:29N 54°23' E 018°40'0 0.0
2017-Nov-26 21:59N 54°23' E 018°40'0 0.0
2017-Nov-26 21:29N 54°23' E 018°40'0 0.0
2017-Nov-26 20:56N 54°23' E 018°40'0 0.0
2017-Nov-26 20:29N 54°23' E 018°40'0 0.0
2017-Nov-26 19:59N 54°23' E 018°40'0 0.0
2017-Nov-26 19:29N 54°23' E 018°40'0 0.0
2017-Nov-26 18:59N 54°23' E 018°40'0 0.0
2017-Nov-26 18:29N 54°23' E 018°40'0 0.0
2017-Nov-26 17:59N 54°23' E 018°40'0 0.0
2017-Nov-26 17:29N 54°23' E 018°40'0 0.0
2017-Nov-26 16:59N 54°23' E 018°40'0 0.0
2017-Nov-26 16:29N 54°23' E 018°40'0 0.0
2017-Nov-26 15:59N 54°23' E 018°40'0 0.0
2017-Nov-26 15:29N 54°23' E 018°40'0 0.0
2017-Nov-26 14:56N 54°23' E 018°40'0 0.0
2017-Nov-26 14:29N 54°23' E 018°40'0 0.0
2017-Nov-26 13:59N 54°23' E 018°40'0 0.0
2017-Nov-26 13:29N 54°23' E 018°40'0 0.0
2017-Nov-26 12:59N 54°23' E 018°40'0 0.0
2017-Nov-26 12:29N 54°23' E 018°40'0 0.0
2017-Nov-26 11:59N 54°23' E 018°40'0 0.0
2017-Nov-26 11:29N 54°23' E 018°40'0 0.0
2017-Nov-26 10:59N 54°23' E 018°40'0 0.0
2017-Nov-26 10:29N 54°23' E 018°40'0 0.0
2017-Nov-26 09:59N 54°23' E 018°40'0 0.0
2017-Nov-26 09:29N 54°23' E 018°40'0 0.0
2017-Nov-26 08:59N 54°23' E 018°40'0 0.0
2017-Nov-26 08:29N 54°23' E 018°40'0 0.0
2017-Nov-26 07:59N 54°23' E 018°40'0 0.0
2017-Nov-26 07:29N 54°23' E 018°40'0 0.0
2017-Nov-26 06:59N 54°23' E 018°40'0 0.0
2017-Nov-26 06:29N 54°23' E 018°40'0 0.0
2017-Nov-26 05:56N 54°23' E 018°40'0 0.0
2017-Nov-26 05:29N 54°23' E 018°40'0 0.0
2017-Nov-26 04:59N 54°23' E 018°40'0 0.0
2017-Nov-26 04:29N 54°23' E 018°40'0 0.0
2017-Nov-26 03:59N 54°23' E 018°40'0 0.0
2017-Nov-26 03:29N 54°23' E 018°40'0 0.0
2017-Nov-26 02:56N 54°23' E 018°40'0 0.0
2017-Nov-26 02:29N 54°23' E 018°40'0 0.0
2017-Nov-26 01:59N 54°23' E 018°40'0 0.0
2017-Nov-26 01:29N 54°23' E 018°40'0 0.0
2017-Nov-26 00:59N 54°23' E 018°40'0 0.0
2017-Nov-26 00:26N 54°23' E 018°40'0 0.0
2017-Nov-25 23:59N 54°23' E 018°40'0 0.0
2017-Nov-25 23:29N 54°23' E 018°40'0 0.0
2017-Nov-25 22:59N 54°23' E 018°40'0 0.0
2017-Nov-25 22:29N 54°23' E 018°40'0 0.0
2017-Nov-25 21:59N 54°23' E 018°40'0 0.0
2017-Nov-25 21:29N 54°23' E 018°40'0 0.0
2017-Nov-25 20:59N 54°23' E 018°40'0 0.0
2017-Nov-25 20:29N 54°23' E 018°40'0 0.0
2017-Nov-25 19:56N 54°23' E 018°40'0 0.0
2017-Nov-25 19:29N 54°23' E 018°40'0 0.0
2017-Nov-25 18:17N 54°23' E 018°40'0 0.0
2017-Nov-25 17:35N 54°23' E 018°40'0 0.0
2017-Nov-25 17:26N 54°23' E 018°40'0 0.0
2017-Nov-25 16:56N 54°23' E 018°40'0 0.0
2017-Nov-25 16:20N 54°23' E 018°40'0 0.0
2017-Nov-25 15:59N 54°23' E 018°40'0 0.0
2017-Nov-25 15:29N 54°23' E 018°40'0 0.0
2017-Nov-25 14:56N 54°23' E 018°40'0 0.0
2017-Nov-25 14:29N 54°23' E 018°40'0 0.0
2017-Nov-25 13:59N 54°23' E 018°40'0 0.0
2017-Nov-25 13:29N 54°23' E 018°40'0 0.0
2017-Nov-25 12:59N 54°23' E 018°40'0 0.0
2017-Nov-25 12:26N 54°23' E 018°40'0 0.0
2017-Nov-25 11:59N 54°23' E 018°40'0 0.0
2017-Nov-25 11:29N 54°23' E 018°40'0 0.0
2017-Nov-25 10:56N 54°23' E 018°40'0 0.0
2017-Nov-25 10:26N 54°23' E 018°40'0 0.0
2017-Nov-25 09:59N 54°23' E 018°40'0 0.0
2017-Nov-25 09:26N 54°23' E 018°40'0 0.0
2017-Nov-25 08:59N 54°23' E 018°40'0 0.0
2017-Nov-25 08:20N 54°23' E 018°40'0 0.1
2017-Nov-25 08:00N 54°23' E 018°40'2 3.2
2017-Nov-25 07:30N 54°24' E 018°40'3 6.2
2017-Nov-25 07:00N 54°27' E 018°42'1 1.1
2017-Nov-25 06:29N 54°27' E 018°43'0 0.1
2017-Nov-25 05:59N 54°28' E 018°43'0 0.0
2017-Nov-25 05:29N 54°28' E 018°43'0 0.0
2017-Nov-25 04:59N 54°28' E 018°43'0 0.1
2017-Nov-25 04:29N 54°28' E 018°43'0 0.0
2017-Nov-25 03:59N 54°27' E 018°43'0 0.0
2017-Nov-25 03:29N 54°27' E 018°43'0 0.1
2017-Nov-25 02:59N 54°28' E 018°43'0 0.1
2017-Nov-25 02:29N 54°27' E 018°43'0 0.1
2017-Nov-25 01:59N 54°27' E 018°43'0 0.1
2017-Nov-25 01:29N 54°27' E 018°43'0 0.0
2017-Nov-25 00:59N 54°27' E 018°43'0 0.1
2017-Nov-25 00:29N 54°27' E 018°43'0 0.0
2017-Nov-24 23:59N 54°27' E 018°43'0 0.0
2017-Nov-24 23:29N 54°27' E 018°43'0 0.0
2017-Nov-24 22:59N 54°27' E 018°43'0 0.0
2017-Nov-24 22:29N 54°27' E 018°43'0 0.0
2017-Nov-24 21:59N 54°27' E 018°43'0 0.0
2017-Nov-24 21:29N 54°27' E 018°43'0 0.0
2017-Nov-24 20:59N 54°27' E 018°43'0 0.0
2017-Nov-24 20:29N 54°27' E 018°43'0 0.0
2017-Nov-24 19:59N 54°27' E 018°43'0 0.1
2017-Nov-24 19:29N 54°27' E 018°43'0 0.2
2017-Nov-24 18:59N 54°28' E 018°42'0 0.0
2017-Nov-24 18:29N 54°28' E 018°42'0 0.0
2017-Nov-24 17:59N 54°28' E 018°42'0 0.0
2017-Nov-24 17:29N 54°28' E 018°42'0 0.0
2017-Nov-24 16:59N 54°28' E 018°42'0 0.0
2017-Nov-24 16:29N 54°28' E 018°42'0 0.0
2017-Nov-24 15:59N 54°28' E 018°42'0 0.0
2017-Nov-24 15:29N 54°28' E 018°42'0 0.0
2017-Nov-24 14:59N 54°28' E 018°42'0 0.0
2017-Nov-24 14:29N 54°28' E 018°42'0 0.0
2017-Nov-24 13:59N 54°28' E 018°42'0 0.0
2017-Nov-24 13:29N 54°28' E 018°42'0 0.0
2017-Nov-24 12:59N 54°28' E 018°42'0 0.0
2017-Nov-24 12:29N 54°28' E 018°42'0 0.0
2017-Nov-24 11:59N 54°28' E 018°42'0 0.0
2017-Nov-24 11:29N 54°28' E 018°42'0 0.0
2017-Nov-24 10:59N 54°28' E 018°42'0 0.0
2017-Nov-24 10:29N 54°28' E 018°42'0 0.0
2017-Nov-24 09:59N 54°28' E 018°42'0 0.0
2017-Nov-24 09:29N 54°28' E 018°42'0 0.0
2017-Nov-24 08:59N 54°28' E 018°42'0 0.0
2017-Nov-24 08:29N 54°28' E 018°42'0 0.0
2017-Nov-24 07:59N 54°28' E 018°42'0 0.0
2017-Nov-24 07:29N 54°28' E 018°42'0 0.0
2017-Nov-24 06:59N 54°28' E 018°42'0 0.1
2017-Nov-24 06:29N 54°28' E 018°42'0 0.0
2017-Nov-24 05:59N 54°28' E 018°42'0 0.1
2017-Nov-24 05:29N 54°28' E 018°42'0 0.1
2017-Nov-24 04:59N 54°28' E 018°42'0 0.1
2017-Nov-24 04:29N 54°28' E 018°42'0 0.2
2017-Nov-24 03:59N 54°28' E 018°42'0 0.0
2017-Nov-24 03:29N 54°28' E 018°42'0 0.0
2017-Nov-24 02:59N 54°28' E 018°42'0 0.0
2017-Nov-24 02:29N 54°28' E 018°42'0 0.0
2017-Nov-24 01:59N 54°28' E 018°42'0 0.1
2017-Nov-24 01:29N 54°28' E 018°42'0 0.0
2017-Nov-24 00:59N 54°28' E 018°43'0 0.0
2017-Nov-24 00:29N 54°28' E 018°43'0 0.0
2017-Nov-23 23:59N 54°28' E 018°42'0 0.0
2017-Nov-23 23:29N 54°28' E 018°43'0 0.1
2017-Nov-23 22:59N 54°28' E 018°42'  
Track history (hours):
 
Tides and Currents Weather Stations Pressure Air Temp Water Temp Dewpoint Dewpoint Depression Visibility Wind Speed Wind Dir Waves Ship Positions

Maersk Barry

Last reported at 2017-Dec-03 22:39 UTC. Time now 2017-Dec-11 19:18 UTC.
Position N 49°48' W 005°13'.

Length 175 m; draft 9.2 m.

Type: Ship (hazmat cat D). MMSI: 219127000.

Date/timePositionNaut miles runAvg speedWind from/ knotsBaromVisibWave heightAir tempDewpointWater temp
2017-Dec-03 22:39N 49°48' W 005°13'214.3
2017-Dec-03 22:30N 49°48' W 005°10'714.2
2017-Dec-03 22:00N 49°50' W 004°58'713.9
2017-Dec-03 21:30N 49°51' W 004°48'713.4
2017-Dec-03 21:00N 49°52' W 004°38'713.2
2017-Dec-03 20:30N 49°54' W 004°28'612.7
2017-Dec-03 20:00N 49°56' W 004°19'612.2
2017-Dec-03 19:30N 49°57' W 004°09'611.8
2017-Dec-03 19:00N 49°59' W 004°01'711.2
2017-Dec-03 18:25N 50°01' W 003°51'410.8
2017-Dec-03 18:00N 50°02' W 003°44'510.5
2017-Dec-03 17:30N 50°04' W 003°37'510.9
2017-Dec-03 17:00N 50°06' W 003°29'611.3
2017-Dec-03 16:30N 50°09' W 003°21'611.8
2017-Dec-03 16:00N 50°12' W 003°13'612.3
2017-Dec-03 15:30N 50°14' W 003°04'612.8
2017-Dec-03 15:00N 50°17' W 002°55'713.5
2017-Dec-03 14:30N 50°20' W 002°46'714.3
2017-Dec-03 14:00N 50°24' W 002°36'815.4
2017-Dec-03 13:30N 50°27' W 002°25'611.0
2017-Dec-03 12:57N 50°32' W 002°20'510.5
2017-Dec-03 12:28N 50°36' W 002°24'0 0.5
2017-Dec-03 11:56N 50°36' W 002°25'0 0.0
2017-Dec-03 11:29N 50°36' W 002°25'0 0.0
2017-Dec-03 10:59N 50°36' W 002°25'0 0.0
2017-Dec-03 10:29N 50°36' W 002°25'0 0.0
2017-Dec-03 09:02N 50°36' W 002°25'0 0.1
2017-Dec-03 08:53N 50°36' W 002°25'0 0.2
2017-Dec-03 08:29N 50°36' W 002°25'2 3.3
2017-Dec-03 07:58N 50°35' W 002°23'2 4.6
2017-Dec-03 07:29N 50°33' W 002°21'8 7.2
2017-Dec-03 06:19N 50°29' W 002°09'2 4.7
2017-Dec-03 06:00N 50°29' W 002°07'2 4.8
2017-Dec-03 05:30N 50°28' W 002°04'4 6.5
2017-Dec-03 04:56N 50°26' W 001°58'410.4
2017-Dec-03 04:30N 50°25' W 001°51'1712.2
2017-Dec-03 03:05N 50°24' W 001°24'113.7
2017-Dec-03 03:01N 50°24' W 001°23'713.9
2017-Dec-03 02:31N 50°24' W 001°12'714.7
2017-Dec-03 02:00N 50°25' W 001°00'715.0
2017-Dec-03 01:31N 50°26' W 000°49'1314.6
2017-Dec-03 00:38N 50°28' W 000°29'314.1
2017-Dec-03 00:25N 50°29' W 000°25'513.7
2017-Dec-03 00:00N 50°30' W 000°16'713.3
2017-Dec-02 23:30N 50°31' W 000°06'612.8
2017-Dec-02 23:00N 50°33' E 000°04'612.3
2017-Dec-02 22:30N 50°34' E 000°13'611.8
2017-Dec-02 22:00N 50°36' E 000°22'611.2
2017-Dec-02 21:30N 50°37' E 000°31'510.7
2017-Dec-02 21:00N 50°40' E 000°38'510.6
2017-Dec-02 20:30N 50°43' E 000°45'510.9
2017-Dec-02 20:00N 50°46' E 000°52'611.4
2017-Dec-02 19:30N 50°49' E 000°59'712.4
2017-Dec-02 18:57N 50°54' E 001°08'613.5
2017-Dec-02 18:30N 50°58' E 001°15'714.4
2017-Dec-02 18:00N 51°02' E 001°24'815.0
2017-Dec-02 17:30N 51°07' E 001°33'714.6
2017-Dec-02 17:00N 51°12' E 001°42'713.7
2017-Dec-02 16:31N 51°17' E 001°48'612.7
2017-Dec-02 16:00N 51°23' E 001°53'612.0
2017-Dec-02 15:31N 51°28' E 001°57'611.5
2017-Dec-02 15:01N 51°33' E 002°03'611.2
2017-Dec-02 14:30N 51°37' E 002°10'610.9
2017-Dec-02 14:00N 51°41' E 002°16'510.7
2017-Dec-02 13:30N 51°45' E 002°21'910.6
2017-Dec-02 12:39N 51°52' E 002°31'210.3
2017-Dec-02 12:29N 51°53' E 002°33'610.1
2017-Dec-02 11:56N 51°58' E 002°38'44011.9
2017-Nov-30 22:55N 57°49' E 010°18'613.7
2017-Nov-30 22:30N 57°49' E 010°29'713.6
2017-Nov-30 22:00N 57°48' E 010°41'510.1
2017-Nov-30 21:30N 57°43' E 010°46'4 7.5
2017-Nov-30 21:00N 57°40' E 010°44'1 1.0
2017-Nov-30 20:29N 57°40' E 010°43'0 0.0
2017-Nov-30 19:59N 57°40' E 010°43'0 0.0
2017-Nov-30 19:29N 57°40' E 010°43'0 0.0
2017-Nov-30 18:59N 57°40' E 010°43'0 0.0
2017-Nov-30 18:26N 57°40' E 010°43'0 0.0
2017-Nov-30 17:59N 57°40' E 010°43'0 0.1
2017-Nov-30 17:29N 57°40' E 010°43'0 0.1
2017-Nov-30 16:56N 57°40' E 010°43'0 0.1
2017-Nov-30 16:26N 57°40' E 010°43'0 0.1
2017-Nov-30 15:59N 57°40' E 010°43'0 0.0
2017-Nov-30 15:29N 57°40' E 010°43'0 0.1
2017-Nov-30 14:56N 57°40' E 010°43'0 0.1
2017-Nov-30 14:26N 57°40' E 010°43'0 0.1
2017-Nov-30 14:00N 57°40' E 010°43'1 1.4
2017-Nov-30 13:30N 57°41' E 010°44'3 6.3
2017-Nov-30 13:00N 57°43' E 010°47'4 8.6
2017-Nov-30 12:30N 57°43' E 010°55'612.3
2017-Nov-30 12:00N 57°39' E 011°04'612.9
2017-Nov-30 11:30N 57°35' E 011°13'713.0
2017-Nov-30 11:00N 57°31' E 011°22'612.6
2017-Nov-30 10:30N 57°25' E 011°28'612.8
2017-Nov-30 10:00N 57°19' E 011°32'713.1
2017-Nov-30 09:29N 57°13' E 011°36'613.4
2017-Nov-30 09:00N 57°07' E 011°40'713.3
2017-Nov-30 08:30N 57°01' E 011°45'10711.6
2017-Nov-29 23:13N 55°16' E 011°05'313.0
2017-Nov-29 23:00N 55°13' E 011°06'612.4
2017-Nov-29 22:30N 55°07' E 011°03'612.7
2017-Nov-29 22:00N 55°01' E 011°02'612.9
2017-Nov-29 21:30N 54°55' E 010°55'612.7
2017-Nov-29 21:00N 54°49' E 010°52'612.2
2017-Nov-29 20:30N 54°43' E 010°51'4 8.4
2017-Nov-29 20:00N 54°40' E 010°54'5 9.9
2017-Nov-29 19:30N 54°38' E 011°02'611.3
2017-Nov-29 19:00N 54°36' E 011°11'713.3
2017-Nov-29 18:30N 54°33' E 011°22'713.3
2017-Nov-29 18:00N 54°30' E 011°32'713.4
2017-Nov-29 17:30N 54°28' E 011°43'713.1
2017-Nov-29 16:57N 54°27' E 011°55'612.6
2017-Nov-29 16:30N 54°26' E 012°05'611.4
2017-Nov-29 16:00N 54°30' E 012°11'8311.6
2017-Nov-29 08:50N 54°39' E 014°34'412.4
2017-Nov-29 08:29N 54°39' E 014°41'812.2
2017-Nov-29 07:50N 54°40' E 014°54'11112.1
2017-Nov-28 22:42N 54°57' E 018°04'212.6
2017-Nov-28 22:30N 54°57' E 018°08'712.7
2017-Nov-28 21:57N 54°57' E 018°21'612.7
2017-Nov-28 21:30N 54°57' E 018°31'612.4
2017-Nov-28 21:00N 54°56' E 018°41'613.0
2017-Nov-28 20:30N 54°51' E 018°49'713.1
2017-Nov-28 20:00N 54°47' E 018°58'611.3
2017-Nov-28 19:31N 54°41' E 018°59'714.0
2017-Nov-28 19:01N 54°35' E 018°53'713.8
2017-Nov-28 18:30N 54°30' E 018°45'5 9.6
2017-Nov-28 18:00N 54°26' E 018°40'2 4.8
2017-Nov-28 17:30N 54°24' E 018°41'2 2.9
2017-Nov-28 16:58N 54°23' E 018°40'0 0.0
2017-Nov-28 16:28N 54°23' E 018°40'0 0.0
2017-Nov-28 15:58N 54°23' E 018°40'0 0.0
2017-Nov-28 14:58N 54°23' E 018°40'0 0.0
2017-Nov-28 14:28N 54°23' E 018°40'0 0.0
2017-Nov-28 13:58N 54°23' E 018°40'0 0.0
2017-Nov-28 13:28N 54°23' E 018°40'0 0.0
2017-Nov-28 12:58N 54°23' E 018°40'0 0.0
2017-Nov-28 12:28N 54°23' E 018°40'0 0.0
2017-Nov-28 11:58N 54°23' E 018°40'0 0.0
2017-Nov-28 11:25N 54°23' E 018°40'0 0.0
2017-Nov-28 10:58N 54°23' E 018°40'0 0.0
2017-Nov-28 10:28N 54°23' E 018°40'0 0.0
2017-Nov-28 09:58N 54°23' E 018°40'0 0.0
2017-Nov-28 09:28N 54°23' E 018°40'0 0.0
2017-Nov-28 08:58N 54°23' E 018°40'0 0.0
2017-Nov-28 08:25N 54°23' E 018°40'0 0.0
2017-Nov-28 07:58N 54°23' E 018°40'0 0.0
2017-Nov-28 07:28N 54°23' E 018°40'0 0.0
2017-Nov-28 06:58N 54°23' E 018°40'0 0.0
2017-Nov-28 06:28N 54°23' E 018°40'0 0.0
2017-Nov-28 05:58N 54°23' E 018°40'0 0.0
2017-Nov-28 05:28N 54°23' E 018°40'0 0.0
2017-Nov-28 04:28N 54°23' E 018°40'0 0.0
2017-Nov-28 03:58N 54°23' E 018°40'0 0.0
2017-Nov-28 03:28N 54°23' E 018°40'0 0.0
2017-Nov-28 02:58N 54°23' E 018°40'0 0.0
2017-Nov-28 02:28N 54°23' E 018°40'0 0.0
2017-Nov-28 01:58N 54°23' E 018°40'0 0.0
2017-Nov-28 01:25N 54°23' E 018°40'0 0.0
2017-Nov-28 00:58N 54°23' E 018°40'0 0.0
2017-Nov-28 00:28N 54°23' E 018°40'0 0.0
2017-Nov-27 23:58N 54°23' E 018°40'0 0.0
2017-Nov-27 23:28N 54°23' E 018°40'0 0.0
2017-Nov-27 22:58N 54°23' E 018°40'0 0.0
2017-Nov-27 22:28N 54°23' E 018°40'0 0.0
2017-Nov-27 21:58N 54°23' E 018°40'0 0.0
2017-Nov-27 21:28N 54°23' E 018°40'0 0.0
2017-Nov-27 20:58N 54°23' E 018°40'0 0.0
2017-Nov-27 20:25N 54°23' E 018°40'0 0.0
2017-Nov-27 19:58N 54°23' E 018°40'0 0.0
2017-Nov-27 19:28N 54°23' E 018°40'0 0.0
2017-Nov-27 18:55N 54°23' E 018°40'0 0.0
2017-Nov-27 18:28N 54°23' E 018°40'0 0.0
2017-Nov-27 17:58N 54°23' E 018°40'0 0.0
2017-Nov-27 17:28N 54°23' E 018°40'0 0.0
2017-Nov-27 16:58N 54°23' E 018°40'0 0.0
2017-Nov-27 16:28N 54°23' E 018°40'0 0.0
2017-Nov-27 15:55N 54°23' E 018°40'0 0.0
2017-Nov-27 15:28N 54°23' E 018°40'0 0.0
2017-Nov-27 14:58N 54°23' E 018°40'0 0.0
2017-Nov-27 14:28N 54°23' E 018°40'0 0.0
2017-Nov-27 13:58N 54°23' E 018°40'0 0.0
2017-Nov-27 13:25N 54°23' E 018°40'0 0.0
2017-Nov-27 12:58N 54°23' E 018°40'0 0.0
2017-Nov-27 12:29N 54°23' E 018°40'0 0.0
2017-Nov-27 11:59N 54°23' E 018°40'0 0.0
2017-Nov-27 11:29N 54°23' E 018°40'0 0.0
2017-Nov-27 10:59N 54°23' E 018°40'0 0.0
2017-Nov-27 10:29N 54°23' E 018°40'0 0.0
2017-Nov-27 09:53N 54°23' E 018°40'0 0.0
2017-Nov-27 09:29N 54°23' E 018°40'0 0.0
2017-Nov-27 08:56N 54°23' E 018°40'0 0.0
2017-Nov-27 08:29N 54°23' E 018°40'0 0.0
2017-Nov-27 07:53N 54°23' E 018°40'0 0.0
2017-Nov-27 07:26N 54°23' E 018°40'0 0.0
2017-Nov-27 06:59N 54°23' E 018°40'0 0.0
2017-Nov-27 06:29N 54°23' E 018°40'0 0.0
2017-Nov-27 05:56N 54°23' E 018°40'0 0.0
2017-Nov-27 05:29N 54°23' E 018°40'0 0.0
2017-Nov-27 04:59N 54°23' E 018°40'0 0.0
2017-Nov-27 04:29N 54°23' E 018°40'0 0.0
2017-Nov-27 03:59N 54°23' E 018°40'0 0.0
2017-Nov-27 03:29N 54°23' E 018°40'0 0.0
2017-Nov-27 02:59N 54°23' E 018°40'0 0.0
2017-Nov-27 02:26N 54°23' E 018°40'0 0.0
2017-Nov-27 01:59N 54°23' E 018°40'0 0.0
2017-Nov-27 01:26N 54°23' E 018°40'0 0.0
2017-Nov-27 00:59N 54°23' E 018°40'0 0.0
2017-Nov-27 00:29N 54°23' E 018°40'0 0.0
2017-Nov-26 23:59N 54°23' E 018°40'0 0.0
2017-Nov-26 23:29N 54°23' E 018°40'0 0.0
2017-Nov-26 22:59N 54°23' E 018°40'0 0.0
2017-Nov-26 22:29N 54°23' E 018°40'0 0.0
2017-Nov-26 21:59N 54°23' E 018°40'0 0.0
2017-Nov-26 21:29N 54°23' E 018°40'0 0.0
2017-Nov-26 20:56N 54°23' E 018°40'0 0.0
2017-Nov-26 20:29N 54°23' E 018°40'0 0.0
2017-Nov-26 19:59N 54°23' E 018°40'0 0.0
2017-Nov-26 19:29N 54°23' E 018°40'0 0.0
2017-Nov-26 18:59N 54°23' E 018°40'0 0.0
2017-Nov-26 18:29N 54°23' E 018°40'0 0.0
2017-Nov-26 17:59N 54°23' E 018°40'0 0.0
2017-Nov-26 17:29N 54°23' E 018°40'0 0.0
2017-Nov-26 16:59N 54°23' E 018°40'0 0.0
2017-Nov-26 16:29N 54°23' E 018°40'0 0.0
2017-Nov-26 15:59N 54°23' E 018°40'0 0.0
2017-Nov-26 15:29N 54°23' E 018°40'0 0.0
2017-Nov-26 14:56N 54°23' E 018°40'0 0.0
2017-Nov-26 14:29N 54°23' E 018°40'0 0.0
2017-Nov-26 13:59N 54°23' E 018°40'0 0.0
2017-Nov-26 13:29N 54°23' E 018°40'0 0.0
2017-Nov-26 12:59N 54°23' E 018°40'0 0.0
2017-Nov-26 12:29N 54°23' E 018°40'0 0.0
2017-Nov-26 11:59N 54°23' E 018°40'0 0.0
2017-Nov-26 11:29N 54°23' E 018°40'0 0.0
2017-Nov-26 10:59N 54°23' E 018°40'0 0.0
2017-Nov-26 10:29N 54°23' E 018°40'0 0.0
2017-Nov-26 09:59N 54°23' E 018°40'0 0.0
2017-Nov-26 09:29N 54°23' E 018°40'0 0.0
2017-Nov-26 08:59N 54°23' E 018°40'0 0.0
2017-Nov-26 08:29N 54°23' E 018°40'0 0.0
2017-Nov-26 07:59N 54°23' E 018°40'0 0.0
2017-Nov-26 07:29N 54°23' E 018°40'0 0.0
2017-Nov-26 06:59N 54°23' E 018°40'0 0.0
2017-Nov-26 06:29N 54°23' E 018°40'0 0.0
2017-Nov-26 05:56N 54°23' E 018°40'0 0.0
2017-Nov-26 05:29N 54°23' E 018°40'0 0.0
2017-Nov-26 04:59N 54°23' E 018°40'0 0.0
2017-Nov-26 04:29N 54°23' E 018°40'0 0.0
2017-Nov-26 03:59N 54°23' E 018°40'0 0.0
2017-Nov-26 03:29N 54°23' E 018°40'0 0.0
2017-Nov-26 02:56N 54°23' E 018°40'0 0.0
2017-Nov-26 02:29N 54°23' E 018°40'0 0.0
2017-Nov-26 01:59N 54°23' E 018°40'0 0.0
2017-Nov-26 01:29N 54°23' E 018°40'0 0.0
2017-Nov-26 00:59N 54°23' E 018°40'0 0.0
2017-Nov-26 00:26N 54°23' E 018°40'0 0.0
2017-Nov-25 23:59N 54°23' E 018°40'0 0.0
2017-Nov-25 23:29N 54°23' E 018°40'0 0.0
2017-Nov-25 22:59N 54°23' E 018°40'0 0.0
2017-Nov-25 22:29N 54°23' E 018°40'0 0.0
2017-Nov-25 21:59N 54°23' E 018°40'0 0.0
2017-Nov-25 21:29N 54°23' E 018°40'0 0.0
2017-Nov-25 20:59N 54°23' E 018°40'0 0.0
2017-Nov-25 20:29N 54°23' E 018°40'0 0.0
2017-Nov-25 19:56N 54°23' E 018°40'0 0.0
2017-Nov-25 19:29N 54°23' E 018°40'0 0.0
2017-Nov-25 18:17N 54°23' E 018°40'0 0.0
2017-Nov-25 17:35N 54°23' E 018°40'0 0.0
2017-Nov-25 17:26N 54°23' E 018°40'0 0.0
2017-Nov-25 16:56N 54°23' E 018°40'0 0.0
2017-Nov-25 16:20N 54°23' E 018°40'0 0.0
2017-Nov-25 15:59N 54°23' E 018°40'0 0.0
2017-Nov-25 15:29N 54°23' E 018°40'0 0.0
2017-Nov-25 14:56N 54°23' E 018°40'0 0.0
2017-Nov-25 14:29N 54°23' E 018°40'0 0.0
2017-Nov-25 13:59N 54°23' E 018°40'0 0.0
2017-Nov-25 13:29N 54°23' E 018°40'0 0.0
2017-Nov-25 12:59N 54°23' E 018°40'0 0.0
2017-Nov-25 12:26N 54°23' E 018°40'0 0.0
2017-Nov-25 11:59N 54°23' E 018°40'0 0.0
2017-Nov-25 11:29N 54°23' E 018°40'0 0.0
2017-Nov-25 10:56N 54°23' E 018°40'0 0.0
2017-Nov-25 10:26N 54°23' E 018°40'0 0.0
2017-Nov-25 09:59N 54°23' E 018°40'0 0.0
2017-Nov-25 09:26N 54°23' E 018°40'0 0.0
2017-Nov-25 08:59N 54°23' E 018°40'0 0.0
2017-Nov-25 08:20N 54°23' E 018°40'0 0.1
2017-Nov-25 08:00N 54°23' E 018°40'2 3.2
2017-Nov-25 07:30N 54°24' E 018°40'3 6.2
2017-Nov-25 07:00N 54°27' E 018°42'1 1.1
2017-Nov-25 06:29N 54°27' E 018°43'0 0.1
2017-Nov-25 05:59N 54°28' E 018°43'0 0.0
2017-Nov-25 05:29N 54°28' E 018°43'0 0.0
2017-Nov-25 04:59N 54°28' E 018°43'0 0.1
2017-Nov-25 04:29N 54°28' E 018°43'0 0.0
2017-Nov-25 03:59N 54°27' E 018°43'0 0.0
2017-Nov-25 03:29N 54°27' E 018°43'0 0.1
2017-Nov-25 02:59N 54°28' E 018°43'0 0.1
2017-Nov-25 02:29N 54°27' E 018°43'0 0.1
2017-Nov-25 01:59N 54°27' E 018°43'0 0.1
2017-Nov-25 01:29N 54°27' E 018°43'0 0.0
2017-Nov-25 00:59N 54°27' E 018°43'0 0.1
2017-Nov-25 00:29N 54°27' E 018°43'0 0.0
2017-Nov-24 23:59N 54°27' E 018°43'0 0.0
2017-Nov-24 23:29N 54°27' E 018°43'0 0.0
2017-Nov-24 22:59N 54°27' E 018°43'0 0.0
2017-Nov-24 22:29N 54°27' E 018°43'0 0.0
2017-Nov-24 21:59N 54°27' E 018°43'0 0.0
2017-Nov-24 21:29N 54°27' E 018°43'0 0.0
2017-Nov-24 20:59N 54°27' E 018°43'0 0.0
2017-Nov-24 20:29N 54°27' E 018°43'0 0.0
2017-Nov-24 19:59N 54°27' E 018°43'0 0.1
2017-Nov-24 19:29N 54°27' E 018°43'0 0.2
2017-Nov-24 18:59N 54°28' E 018°42'0 0.0
2017-Nov-24 18:29N 54°28' E 018°42'0 0.0
2017-Nov-24 17:59N 54°28' E 018°42'0 0.0
2017-Nov-24 17:29N 54°28' E 018°42'0 0.0
2017-Nov-24 16:59N 54°28' E 018°42'0 0.0
2017-Nov-24 16:29N 54°28' E 018°42'0 0.0
2017-Nov-24 15:59N 54°28' E 018°42'0 0.0
2017-Nov-24 15:29N 54°28' E 018°42'0 0.0
2017-Nov-24 14:59N 54°28' E 018°42'0 0.0
2017-Nov-24 14:29N 54°28' E 018°42'0 0.0
2017-Nov-24 13:59N 54°28' E 018°42'0 0.0
2017-Nov-24 13:29N 54°28' E 018°42'0 0.0
2017-Nov-24 12:59N 54°28' E 018°42'0 0.0
2017-Nov-24 12:29N 54°28' E 018°42'0 0.0
2017-Nov-24 11:59N 54°28' E 018°42'0 0.0
2017-Nov-24 11:29N 54°28' E 018°42'0 0.0
2017-Nov-24 10:59N 54°28' E 018°42'0 0.0
2017-Nov-24 10:29N 54°28' E 018°42'0 0.0
2017-Nov-24 09:59N 54°28' E 018°42'0 0.0
2017-Nov-24 09:29N 54°28' E 018°42'0 0.0
2017-Nov-24 08:59N 54°28' E 018°42'0 0.0
2017-Nov-24 08:29N 54°28' E 018°42'0 0.0
2017-Nov-24 07:59N 54°28' E 018°42'0 0.0
2017-Nov-24 07:29N 54°28' E 018°42'0 0.0
2017-Nov-24 06:59N 54°28' E 018°42'0 0.1
2017-Nov-24 06:29N 54°28' E 018°42'0 0.0
2017-Nov-24 05:59N 54°28' E 018°42'0 0.1
2017-Nov-24 05:29N 54°28' E 018°42'0 0.1
2017-Nov-24 04:59N 54°28' E 018°42'0 0.1
2017-Nov-24 04:29N 54°28' E 018°42'0 0.2
2017-Nov-24 03:59N 54°28' E 018°42'0 0.0
2017-Nov-24 03:29N 54°28' E 018°42'0 0.0
2017-Nov-24 02:59N 54°28' E 018°42'0 0.0
2017-Nov-24 02:29N 54°28' E 018°42'0 0.0
2017-Nov-24 01:59N 54°28' E 018°42'0 0.1
2017-Nov-24 01:29N 54°28' E 018°42'0 0.0
2017-Nov-24 00:59N 54°28' E 018°43'0 0.0
2017-Nov-24 00:29N 54°28' E 018°43'0 0.0
2017-Nov-23 23:59N 54°28' E 018°42'0 0.0
2017-Nov-23 23:29N 54°28' E 018°43'0 0.1
2017-Nov-23 22:59N 54°28' E 018°42'  

Dump ship's entire track history